Albanel, Canada
Current Conditions -  °F | °C
As of 11:00 PM on Saturday 20 Dec 2014 (Local Time) from CYRJ Reporting Station
Clear Clear  
Wind Chill: -6°   Ceiling: Unl
Heat Index: -6°   Visibility: 25mi
Dew Point: -9°   Wind: 3mph
Humidity: 84%   Direction: 260°W
Pressure: 30.34"   Gusts: NA
Location:  48.87°N, 72.42°W
Report Text: CYRJ 210400Z 26003KT 25SM SKC M21/M23 A3034 RMK SLP293
Loading
Personal Weather Stations






























Interactive Weather Map New forecast layout! Learn more

10-Day Weather Forecast

Advertisements
Track Severe Weather on mobile